Aérodrome :
LOGIN :

S'inscrire | Disclaimer

   EN    FR    IT 

 










Légende :    VFR   VFR Marginal   IFR   IFR Intensif   IFR Très Intensif
Visi : 
Plafond : 
>= 8 km
>= 3000ft
5 à 8 km
1000 à 3000 ft
1500m à 5 km
500 à 1000 ft
800 à 1500m
200 à 500 ft
< 800m
< 200 ft
Symboles :   Orages  Brouillard  Fortes neiges  Fortes précipitations  Vent > 20 kt
SIGMETs :   Divers  Orages  Givrage  Turbulence  Onde Orograph.  Cendres Volcan.






- Altitude de l'aérodrome : 65 ft
- Code IATA : PIK


EGPK - Glasgow Prestwick

DERNIER METAR :
  • 201050Z 19006KT 9999 BKN025 07/04 Q1044

METARs EXPIRÉS :
  • 201020Z 19005KT 9999 BKN026 07/04 Q1044
  • 200950Z 19007KT 9999 BKN026 07/04 Q1044
  • 200920Z 19007KT 9999 BKN026 07/04 Q1044
  • 200850Z 19006KT 9999 BKN026 06/04 Q1044
  • 200820Z 19007KT 9999 BKN024 06/04 Q1044

TAF TAF EGPK
Valide du 20 à 06h jusqu'au 21 à 06h UTC


200459Z 2006/2106 20012KT 9999 SCT025
TEMPO 2006/2106 BKN014
PROB40
TEMPO 2103/2106 7000 -DZ BKN006



MET'MAP, la Météo Aéronautique d'un coup d'oeil ! - Copyright ORBIFLY Décembre 2007 - Disclaimer

ORBIFLY MET'MAP TEAM :

Programmation & Développement : Alexandra Zaïnal
Sur une idée originale de : Baudouin d'Aumeries
Assistance à la programmation : Marc-Olivier Méhu
Soutien technique & logistique : Manuel Goepfert

Contact : metmap@orbifly.com




SOURCES & CREDITS :

   NOAA